Time;durP1;ratioP1;P1;durP2;ratioP2;P2;SDS_P1;SDS_P2;PMS_P1;PMS_P2;Temp;Humidity;BMP_temperature;BMP_pressure;BME280_temperature;BME280_humidity;BME280_pressure;Samples;Min_cycle;Max_cycle;Signal;HPM_P1;HPM_P2
2023/10/19 00:01:25;;;;;;;8.18;4.80;;;10.70;99.90;;;;;;6195449;23;20174;-62
2023/10/19 00:03:55;;;;;;;6.75;4.72;;;10.70;99.90;;;;;;6194376;23;19997;-62
2023/10/19 00:06:23;;;;;;;9.27;4.68;;;10.60;99.90;;;;;;6195195;23;20022;-61
2023/10/19 00:08:50;;;;;;;12.80;5.35;;;10.70;99.90;;;;;;6195047;23;20070;-62
2023/10/19 00:11:26;;;;;;;7.25;4.57;;;10.70;99.90;;;;;;6194405;23;20011;-62
2023/10/19 00:13:57;;;;;;;8.25;4.93;;;10.70;99.90;;;;;;6194984;23;20000;-62
2023/10/19 00:16:26;;;;;;;9.00;4.75;;;10.90;99.90;;;;;;6194936;23;20012;-62
2023/10/19 00:18:52;;;;;;;10.68;5.90;;;11.00;99.90;;;;;;6194740;23;20008;-62
2023/10/19 00:21:23;;;;;;;9.38;5.18;;;11.10;99.90;;;;;;6194326;23;20080;-62
2023/10/19 00:23:52;;;;;;;7.78;4.85;;;11.00;99.90;;;;;;6194991;23;20001;-61
2023/10/19 00:26:19;;;;;;;9.90;4.80;;;11.10;99.90;;;;;;6194926;23;20059;-62
2023/10/19 00:28:48;;;;;;;9.25;4.93;;;11.10;99.90;;;;;;6194331;23;20007;-62
2023/10/19 00:31:13;;;;;;;9.85;5.13;;;11.10;99.90;;;;;;6195083;23;20015;-62
2023/10/19 00:33:39;;;;;;;10.38;5.15;;;11.30;99.90;;;;;;6193991;23;20008;-62
2023/10/19 00:36:07;;;;;;;5.60;4.30;;;11.30;99.90;;;;;;6194385;23;20051;-62
2023/10/19 00:41:00;;;;;;;9.18;4.78;;;11.50;99.90;;;;;;6230512;23;20009;-62
2023/10/19 00:43:28;;;;;;;8.63;5.00;;;11.40;99.90;;;;;;6194359;23;19997;-67
2023/10/19 00:45:54;;;;;;;12.40;5.25;;;11.40;99.90;;;;;;6195020;23;20025;-68
2023/10/19 00:48:23;;;;;;;9.65;5.40;;;11.40;99.90;;;;;;6194234;23;20063;-68
2023/10/19 00:50:52;;;;;;;7.72;4.30;;;11.40;99.90;;;;;;6194884;23;20001;-67
2023/10/19 00:53:18;;;;;;;6.57;4.45;;;11.30;99.90;;;;;;6194439;23;20047;-68
2023/10/19 00:55:45;;;;;;;9.65;4.80;;;11.50;99.90;;;;;;6194501;23;20005;-68
2023/10/19 00:58:17;;;;;;;7.88;4.45;;;11.40;99.90;;;;;;6194313;23;20001;-68
2023/10/19 01:00:44;;;;;;;9.95;5.18;;;11.50;99.90;;;;;;6193887;23;20191;-68
2023/10/19 01:03:11;;;;;;;7.53;4.65;;;11.60;99.90;;;;;;6194532;23;20073;-68
2023/10/19 01:05:36;;;;;;;7.82;4.95;;;11.50;99.90;;;;;;6194110;23;20005;-68
2023/10/19 01:08:14;;;;;;;8.45;5.00;;;11.50;99.90;;;;;;6195148;23;20059;-68
2023/10/19 01:10:40;;;;;;;7.47;4.72;;;11.60;99.90;;;;;;6194377;23;20008;-68
2023/10/19 01:13:06;;;;;;;9.88;4.85;;;11.50;99.90;;;;;;6194812;23;19997;-68
2023/10/19 01:15:36;;;;;;;10.48;4.80;;;11.60;99.90;;;;;;6195098;23;20076;-68
2023/10/19 01:18:02;;;;;;;8.30;4.85;;;11.60;99.90;;;;;;6194637;23;19997;-68
2023/10/19 01:25:50;;;;;;;7.13;4.10;;;11.40;99.90;;;;;;6220565;23;20005;-62
2023/10/19 01:28:17;;;;;;;6.00;3.70;;;11.40;99.90;;;;;;6194466;23;20001;-62
2023/10/19 01:30:51;;;;;;;7.60;4.60;;;11.50;99.90;;;;;;6194621;23;20004;-62
2023/10/19 01:33:18;;;;;;;7.28;4.10;;;11.50;99.90;;;;;;6194931;23;20083;-63
2023/10/19 01:38:33;;;;;;;5.32;3.72;;;11.50;99.90;;;;;;6219694;23;20008;-62
2023/10/19 01:41:00;;;;;;;5.07;3.67;;;11.50;99.90;;;;;;6194059;23;20016;-62
2023/10/19 01:43:31;;;;;;;6.38;3.95;;;11.70;99.90;;;;;;6194614;23;19997;-63
2023/10/19 01:46:13;;;;;;;7.97;4.77;;;11.70;99.90;;;;;;6196377;23;20000;-62
2023/10/19 01:48:40;;;;;;;7.30;4.03;;;11.70;99.90;;;;;;6195342;23;20036;-63
2023/10/19 01:51:10;;;;;;;8.85;4.57;;;11.60;99.90;;;;;;6195852;23;20031;-62
2023/10/19 01:53:39;;;;;;;9.18;5.72;;;11.70;99.90;;;;;;6195295;23;20031;-62
2023/10/19 01:56:09;;;;;;;12.32;5.28;;;11.80;99.90;;;;;;6195430;23;20011;-66
2023/10/19 01:58:36;;;;;;;11.32;5.63;;;11.50;99.90;;;;;;6195528;23;20008;-66
2023/10/19 02:01:08;;;;;;;8.93;5.55;;;11.60;99.90;;;;;;6195378;23;20000;-66
2023/10/19 02:03:35;;;;;;;12.45;6.22;;;11.50;99.90;;;;;;6195572;23;20076;-66
2023/10/19 02:06:10;;;;;;;9.60;6.22;;;11.40;99.90;;;;;;6195430;23;20080;-66
2023/10/19 02:08:38;;;;;;;9.07;5.57;;;11.40;99.90;;;;;;6196128;23;20040;-66
2023/10/19 02:11:13;;;;;;;11.30;6.40;;;11.40;99.90;;;;;;6196122;23;20008;-67
2023/10/19 02:13:39;;;;;;;10.18;5.97;;;11.40;99.90;;;;;;6195593;23;20032;-66
2023/10/19 02:16:06;;;;;;;10.13;6.35;;;11.50;99.90;;;;;;6196107;23;20011;-66
2023/10/19 02:18:34;;;;;;;9.93;6.68;;;11.40;99.90;;;;;;6195333;23;20005;-66
2023/10/19 02:21:02;;;;;;;13.80;7.25;;;11.40;99.90;;;;;;6194935;23;20004;-62
2023/10/19 02:23:28;;;;;;;12.18;7.03;;;11.50;99.90;;;;;;6195019;23;20079;-62
2023/10/19 02:25:54;;;;;;;9.82;6.28;;;11.50;99.90;;;;;;6195304;23;20007;-62
2023/10/19 02:28:29;;;;;;;11.90;6.15;;;11.50;99.90;;;;;;6195458;23;20013;-62
2023/10/19 02:30:54;;;;;;;11.25;6.13;;;11.70;99.90;;;;;;6196065;23;20004;-62
2023/10/19 02:33:20;;;;;;;11.25;6.72;;;11.80;99.90;;;;;;6195359;23;20001;-62
2023/10/19 02:35:47;;;;;;;14.27;7.72;;;11.70;99.90;;;;;;6195469;23;20130;-62
2023/10/19 02:38:13;;;;;;;11.20;6.57;;;11.50;99.90;;;;;;6195190;23;19996;-62
2023/10/19 02:40:39;;;;;;;14.00;7.13;;;11.80;99.90;;;;;;6194960;23;20035;-68
2023/10/19 02:43:05;;;;;;;13.18;6.43;;;11.90;99.90;;;;;;6195799;23;20012;-68
2023/10/19 02:45:31;;;;;;;16.95;7.95;;;12.00;99.90;;;;;;6195264;23;20000;-68
2023/10/19 02:47:58;;;;;;;13.18;7.80;;;12.00;99.90;;;;;;6194907;23;20005;-68
2023/10/19 02:50:26;;;;;;;14.52;8.50;;;12.00;99.90;;;;;;6194838;23;20039;-68
2023/10/19 02:52:53;;;;;;;12.40;6.93;;;12.10;99.90;;;;;;6195091;23;20016;-68
2023/10/19 02:55:23;;;;;;;13.07;7.22;;;12.20;99.90;;;;;;6194923;23;20005;-68
2023/10/19 02:57:50;;;;;;;14.18;7.93;;;12.30;99.90;;;;;;6195107;23;20058;-65
2023/10/19 03:00:19;;;;;;;14.18;8.25;;;12.20;99.90;;;;;;6194686;23;20004;-65
2023/10/19 03:02:45;;;;;;;17.10;7.80;;;12.20;99.90;;;;;;6194950;23;20005;-65
2023/10/19 03:05:20;;;;;;;14.02;8.35;;;12.20;99.90;;;;;;6195088;23;20076;-64
2023/10/19 03:07:46;;;;;;;19.60;8.30;;;12.30;99.90;;;;;;6195587;23;20076;-64
2023/10/19 03:10:25;;;;;;;19.27;9.27;;;12.20;99.90;;;;;;6195053;23;20012;-64
2023/10/19 03:12:51;;;;;;;15.30;8.52;;;12.20;99.90;;;;;;6194626;23;20012;-64
2023/10/19 03:15:20;;;;;;;17.38;8.00;;;12.10;99.90;;;;;;6195079;23;20012;-64
2023/10/19 03:17:46;;;;;;;19.52;9.18;;;12.20;99.90;;;;;;6195018;23;20011;-66
2023/10/19 03:20:12;;;;;;;21.55;9.48;;;12.20;99.90;;;;;;6194713;23;20004;-66
2023/10/19 03:22:38;;;;;;;18.77;9.43;;;12.20;99.90;;;;;;6195096;23;20000;-66
2023/10/19 03:27:50;;;;;;;19.88;10.32;;;12.10;99.90;;;;;;6220619;23;20058;-66
2023/10/19 03:30:18;;;;;;;17.95;9.05;;;12.10;99.90;;;;;;6194452;23;20099;-66
2023/10/19 03:32:44;;;;;;;23.88;10.45;;;12.10;99.90;;;;;;6194610;23;20011;-62
2023/10/19 03:35:15;;;;;;;20.45;10.68;;;12.20;99.90;;;;;;6195440;23;20013;-62
2023/10/19 03:37:41;;;;;;;27.17;9.75;;;12.40;99.90;;;;;;6195561;23;20008;-62
2023/10/19 03:40:09;;;;;;;24.90;10.35;;;12.30;99.90;;;;;;6194118;23;20012;-62
2023/10/19 03:42:40;;;;;;;23.30;9.45;;;12.40;99.90;;;;;;6194741;23;20032;-61
2023/10/19 03:45:13;;;;;;;23.00;11.20;;;12.40;99.90;;;;;;6194791;23;19997;-62
2023/10/19 03:47:39;;;;;;;21.63;10.02;;;12.40;99.90;;;;;;6195092;23;20026;-62
2023/10/19 03:50:06;;;;;;;23.58;10.23;;;12.50;99.90;;;;;;6195171;23;20008;-62
2023/10/19 03:52:37;;;;;;;21.00;9.23;;;12.50;99.90;;;;;;6195203;23;20000;-61
2023/10/19 03:55:05;;;;;;;21.05;9.88;;;12.70;99.90;;;;;;6195220;23;20000;-62
2023/10/19 03:57:31;;;;;;;22.75;9.35;;;12.60;99.90;;;;;;6195104;23;20000;-62
2023/10/19 03:59:57;;;;;;;21.52;10.50;;;12.70;99.90;;;;;;6194851;23;20011;-62
2023/10/19 04:02:34;;;;;;;24.17;11.18;;;12.80;99.90;;;;;;6195420;23;20001;-62
2023/10/19 04:05:01;;;;;;;23.80;9.75;;;12.80;99.90;;;;;;6195344;23;20009;-62
2023/10/19 04:07:30;;;;;;;21.10;10.60;;;12.70;99.90;;;;;;6194135;23;20005;-62
2023/10/19 04:12:30;;;;;;;28.35;12.00;;;12.70;99.90;;;;;;6220688;23;20084;-68
2023/10/19 04:14:56;;;;;;;27.67;12.25;;;12.60;99.90;;;;;;6194970;23;20004;-68
2023/10/19 04:17:23;;;;;;;24.45;11.25;;;12.60;99.90;;;;;;6194439;23;20004;-68
2023/10/19 04:19:54;;;;;;;23.45;10.48;;;12.70;99.90;;;;;;6193992;23;20005;-68
2023/10/19 04:22:23;;;;;;;25.10;11.43;;;12.70;99.90;;;;;;6194368;23;20011;-68
2023/10/19 04:24:50;;;;;;;23.60;10.20;;;12.80;99.90;;;;;;6193936;23;20000;-68
2023/10/19 04:27:15;;;;;;;27.27;11.68;;;12.80;99.90;;;;;;6194659;23;20004;-68
2023/10/19 04:29:43;;;;;;;27.63;11.27;;;12.50;99.90;;;;;;6194504;23;20059;-68
2023/10/19 04:32:09;;;;;;;27.25;10.80;;;12.60;99.90;;;;;;6194935;23;20012;-62
2023/10/19 04:34:36;;;;;;;29.63;11.65;;;12.70;99.90;;;;;;6194200;23;20110;-62
2023/10/19 04:37:03;;;;;;;27.80;12.15;;;12.50;99.90;;;;;;6194384;23;20032;-62
2023/10/19 04:39:30;;;;;;;29.92;12.38;;;12.50;99.90;;;;;;6194488;23;20009;-63
2023/10/19 04:41:55;;;;;;;25.23;11.52;;;12.70;99.90;;;;;;6194873;23;20039;-62
2023/10/19 04:44:22;;;;;;;27.65;11.65;;;12.60;99.90;;;;;;6194349;23;20001;-62
2023/10/19 04:46:48;;;;;;;33.30;12.00;;;12.70;99.90;;;;;;6194149;23;20001;-62
2023/10/19 04:49:13;;;;;;;37.38;14.43;;;12.80;99.90;;;;;;6194243;23;20058;-62
2023/10/19 04:51:39;;;;;;;34.97;13.13;;;12.60;99.90;;;;;;6194108;23;20131;-62
2023/10/19 04:54:08;;;;;;;30.73;13.23;;;12.60;99.90;;;;;;6194343;23;20004;-63
2023/10/19 04:56:35;;;;;;;36.83;13.10;;;12.50;99.90;;;;;;6194223;23;20032;-63
2023/10/19 04:59:02;;;;;;;30.23;12.07;;;12.50;99.90;;;;;;6194421;23;20013;-62
2023/10/19 05:01:28;;;;;;;32.08;13.00;;;12.40;99.90;;;;;;6194766;23;20028;-62
2023/10/19 05:03:53;;;;;;;33.15;13.80;;;12.40;99.90;;;;;;6194631;23;20008;-63
2023/10/19 05:06:19;;;;;;;34.80;13.32;;;12.40;99.90;;;;;;6194927;23;20008;-63
2023/10/19 05:08:46;;;;;;;43.88;14.90;;;12.30;99.90;;;;;;6194456;23;20039;-62
2023/10/19 05:11:12;;;;;;;41.55;14.52;;;12.20;99.90;;;;;;6194994;23;20012;-62
2023/10/19 05:13:39;;;;;;;38.28;14.43;;;12.20;99.90;;;;;;6193902;23;20005;-62
2023/10/19 05:16:05;;;;;;;41.58;15.32;;;12.40;99.90;;;;;;6193709;23;20031;-62
2023/10/19 05:18:30;;;;;;;38.10;14.30;;;12.40;99.90;;;;;;6194484;23;20027;-62
2023/10/19 05:20:56;;;;;;;38.95;14.40;;;12.50;99.90;;;;;;6196068;23;20008;-62
2023/10/19 05:23:26;;;;;;;36.05;13.98;;;12.50;99.90;;;;;;6196127;23;20074;-62
2023/10/19 05:26:02;;;;;;;40.03;13.60;;;12.50;99.90;;;;;;6195801;23;20000;-62
2023/10/19 05:28:28;;;;;;;40.85;15.20;;;12.70;99.90;;;;;;6196352;23;20126;-62
2023/10/19 05:30:54;;;;;;;40.28;14.73;;;12.70;99.90;;;;;;6195892;23;20001;-62
2023/10/19 05:33:23;;;;;;;51.55;16.35;;;12.70;99.90;;;;;;6195847;23;20001;-62
2023/10/19 05:35:49;;;;;;;48.50;15.40;;;12.60;99.90;;;;;;6196342;23;20004;-62
2023/10/19 05:38:16;;;;;;;53.20;17.55;;;12.60;99.90;;;;;;6196422;23;20008;-62
2023/10/19 05:40:45;;;;;;;54.92;16.27;;;12.50;99.90;;;;;;6195098;23;20012;-62
2023/10/19 05:43:11;;;;;;;45.55;15.85;;;12.30;99.90;;;;;;6196553;23;20008;-62
2023/10/19 05:45:37;;;;;;;41.72;14.48;;;12.30;99.90;;;;;;6195751;23;20000;-62
2023/10/19 05:48:09;;;;;;;47.55;15.35;;;12.50;99.90;;;;;;6196409;23;20000;-62
2023/10/19 05:50:35;;;;;;;43.90;15.40;;;12.50;99.90;;;;;;6195698;23;20004;-62
2023/10/19 05:53:01;;;;;;;45.63;15.13;;;12.60;99.90;;;;;;6195873;23;20009;-62
2023/10/19 05:55:27;;;;;;;36.50;14.05;;;12.70;99.90;;;;;;6195341;23;20005;-62
2023/10/19 05:57:52;;;;;;;40.30;15.98;;;12.80;99.90;;;;;;6195675;23;20012;-62
2023/10/19 06:00:20;;;;;;;41.83;14.77;;;12.90;99.90;;;;;;6195376;23;20012;-62
2023/10/19 06:02:49;;;;;;;42.22;14.02;;;12.80;99.90;;;;;;6196736;23;20000;-62
2023/10/19 06:05:15;;;;;;;39.25;14.88;;;12.70;99.90;;;;;;6195219;23;20000;-62
2023/10/19 06:07:48;;;;;;;40.10;14.43;;;12.70;99.90;;;;;;6196172;23;20027;-62
2023/10/19 06:10:17;;;;;;;37.92;13.68;;;12.80;99.90;;;;;;6196406;23;20008;-62
2023/10/19 06:12:44;;;;;;;35.25;14.50;;;12.80;99.90;;;;;;6195617;23;20001;-62
2023/10/19 06:15:11;;;;;;;37.88;13.40;;;12.80;99.90;;;;;;6195339;23;20005;-62
2023/10/19 06:17:38;;;;;;;39.47;14.52;;;12.70;99.90;;;;;;6195607;23;20008;-62
2023/10/19 06:20:08;;;;;;;39.05;14.18;;;12.70;99.90;;;;;;6195348;23;20047;-62
2023/10/19 06:22:37;;;;;;;36.42;14.43;;;12.70;99.90;;;;;;6196043;23;20019;-62
2023/10/19 06:25:06;;;;;;;42.55;14.02;;;12.70;99.90;;;;;;6195376;23;20077;-62
2023/10/19 06:27:32;;;;;;;41.55;14.43;;;12.60;99.90;;;;;;6196036;23;20007;-62
2023/10/19 06:29:58;;;;;;;47.30;16.13;;;12.60;99.90;;;;;;6194948;23;20009;-62
2023/10/19 06:32:23;;;;;;;39.50;14.40;;;12.60;99.90;;;;;;6195408;23;20015;-62
2023/10/19 06:34:50;;;;;;;47.00;14.85;;;12.50;99.90;;;;;;6194904;23;20005;-62
2023/10/19 06:37:15;;;;;;;42.90;14.27;;;12.50;99.90;;;;;;6195068;23;20009;-62
2023/10/19 06:39:41;;;;;;;35.03;13.52;;;12.50;99.90;;;;;;6195010;23;20013;-62
2023/10/19 06:42:13;;;;;;;39.33;15.40;;;12.50;99.90;;;;;;6195212;23;20000;-62
2023/10/19 06:44:43;;;;;;;45.50;15.52;;;12.50;99.90;;;;;;6195967;23;20027;-62
2023/10/19 06:47:08;;;;;;;45.03;16.52;;;12.60;99.90;;;;;;6194972;23;20043;-62
2023/10/19 06:49:34;;;;;;;37.65;13.68;;;12.60;99.90;;;;;;6195820;23;20009;-62
2023/10/19 06:52:00;;;;;;;35.00;14.00;;;12.70;99.90;;;;;;6194870;23;20009;-62
2023/10/19 06:54:27;;;;;;;35.88;14.60;;;12.70;99.90;;;;;;6195101;23;20012;-62
2023/10/19 06:56:53;;;;;;;41.15;14.35;;;12.90;99.90;;;;;;6195741;23;20008;-62
2023/10/19 06:59:19;;;;;;;41.22;14.93;;;13.00;99.90;;;;;;6194787;23;20028;-62
2023/10/19 07:01:44;;;;;;;36.17;15.55;;;13.00;99.90;;;;;;6195270;23;20032;-62
2023/10/19 07:04:10;;;;;;;43.25;15.40;;;13.00;99.90;;;;;;6195136;23;20004;-62
2023/10/19 07:06:35;;;;;;;40.42;15.45;;;12.90;99.90;;;;;;6194627;23;20007;-62
2023/10/19 07:09:03;;;;;;;49.00;17.75;;;12.90;99.90;;;;;;6195740;23;20008;-62
2023/10/19 07:11:29;;;;;;;52.35;18.15;;;12.90;99.90;;;;;;6194650;23;20015;-62
2023/10/19 07:13:55;;;;;;;42.17;15.93;;;12.80;99.90;;;;;;6195668;23;20083;-62
2023/10/19 07:16:20;;;;;;;50.70;17.60;;;12.80;99.90;;;;;;6194655;23;20040;-62
2023/10/19 07:18:46;;;;;;;46.53;15.80;;;12.70;99.90;;;;;;6194878;23;20062;-62
2023/10/19 07:21:12;;;;;;;43.92;15.35;;;12.70;99.90;;;;;;6195778;23;20039;-62
2023/10/19 07:23:38;;;;;;;48.63;16.10;;;12.80;99.90;;;;;;6194871;23;20001;-62
2023/10/19 07:26:03;;;;;;;36.47;14.52;;;13.00;99.90;;;;;;6194645;23;20051;-62
2023/10/19 07:28:31;;;;;;;40.05;15.20;;;13.00;99.90;;;;;;6194640;23;20007;-62
2023/10/19 07:30:57;;;;;;;43.38;16.30;;;13.10;99.90;;;;;;6195118;23;20075;-62
2023/10/19 07:33:23;;;;;;;41.40;16.70;;;13.00;99.90;;;;;;6195116;23;20011;-62
2023/10/19 07:35:59;;;;;;;40.97;15.85;;;13.10;99.90;;;;;;6195351;23;20071;-62
2023/10/19 07:38:25;;;;;;;38.92;14.57;;;13.20;99.90;;;;;;6194569;23;20004;-62
2023/10/19 07:40:54;;;;;;;42.33;16.45;;;13.30;99.90;;;;;;6194191;23;20048;-62
2023/10/19 07:43:23;;;;;;;42.65;16.13;;;13.30;99.90;;;;;;6194648;23;20001;-62
2023/10/19 07:45:49;;;;;;;45.40;17.58;;;13.20;99.90;;;;;;6194407;23;20005;-62
2023/10/19 07:48:15;;;;;;;42.85;16.63;;;13.20;99.90;;;;;;6194493;23;20008;-62
2023/10/19 07:50:42;;;;;;;37.08;14.73;;;13.20;99.90;;;;;;6194560;23;20017;-62
2023/10/19 07:53:09;;;;;;;51.70;17.45;;;13.20;99.90;;;;;;6194572;23;20030;-62
2023/10/19 07:55:35;;;;;;;37.58;15.10;;;13.20;99.90;;;;;;6194197;23;20004;-62
2023/10/19 07:58:02;;;;;;;40.15;17.05;;;13.20;99.90;;;;;;6194138;23;20020;-62
2023/10/19 08:00:30;;;;;;;38.30;16.30;;;13.20;99.90;;;;;;6194280;23;20015;-62
2023/10/19 08:02:56;;;;;;;40.08;15.52;;;13.20;99.90;;;;;;6194495;23;20004;-62
2023/10/19 08:05:22;;;;;;;45.35;16.48;;;13.30;99.90;;;;;;6195454;23;20005;-62
2023/10/19 08:07:48;;;;;;;39.55;15.02;;;13.30;99.90;;;;;;6194754;23;20001;-62
2023/10/19 08:10:16;;;;;;;47.42;16.48;;;13.30;99.90;;;;;;6194299;23;20012;-62
2023/10/19 08:12:43;;;;;;;47.05;16.52;;;13.30;99.90;;;;;;6194161;23;20008;-62
2023/10/19 08:15:19;;;;;;;44.55;16.42;;;13.20;99.90;;;;;;6194690;23;20008;-62
2023/10/19 08:17:47;;;;;;;45.75;17.73;;;13.30;99.90;;;;;;6194383;23;20008;-61
2023/10/19 08:20:22;;;;;;;44.85;16.35;;;13.20;99.90;;;;;;6194252;23;20005;-62
2023/10/19 08:22:52;;;;;;;46.17;17.00;;;13.30;99.90;;;;;;6194133;23;20004;-62
2023/10/19 08:25:18;;;;;;;53.60;18.90;;;13.40;99.90;;;;;;6194618;23;20029;-62
2023/10/19 08:27:45;;;;;;;43.28;17.83;;;13.40;99.90;;;;;;6194089;23;19996;-62
2023/10/19 08:30:13;;;;;;;48.15;18.23;;;13.40;99.90;;;;;;6169578;23;20055;-62
2023/10/19 08:32:39;;;;;;;47.75;17.98;;;13.40;99.90;;;;;;6194561;23;20009;-63
2023/10/19 08:35:05;;;;;;;49.13;18.55;;;13.40;99.90;;;;;;6194742;23;20092;-61
2023/10/19 08:37:31;;;;;;;50.15;18.70;;;13.40;99.90;;;;;;6194906;23;20016;-61
2023/10/19 08:39:57;;;;;;;48.53;19.25;;;13.40;99.90;;;;;;6193655;23;20005;-66
2023/10/19 08:42:23;;;;;;;54.17;19.38;;;13.30;99.90;;;;;;6194266;23;20036;-66
2023/10/19 08:44:49;;;;;;;51.55;20.58;;;13.50;99.90;;;;;;6195315;23;20000;-66
2023/10/19 08:47:15;;;;;;;39.17;15.75;;;13.50;99.90;;;;;;6193733;23;20001;-66
2023/10/19 08:49:41;;;;;;;55.97;19.98;;;13.60;99.90;;;;;;6194078;23;20012;-67
2023/10/19 08:52:08;;;;;;;45.63;19.38;;;13.80;99.90;;;;;;6194887;23;20012;-67
2023/10/19 08:54:33;;;;;;;55.50;19.70;;;13.70;99.90;;;;;;6195582;23;20012;-67
2023/10/19 08:56:59;;;;;;;39.60;17.08;;;13.80;99.90;;;;;;6196403;23;20008;-67
2023/10/19 08:59:26;;;;;;;54.85;20.52;;;14.00;99.90;;;;;;6196066;23;20004;-67
2023/10/19 09:02:03;;;;;;;52.95;19.70;;;14.00;99.90;;;;;;6196652;23;19997;-66
2023/10/19 09:04:30;;;;;;;57.47;20.80;;;14.00;99.90;;;;;;6195977;23;20008;-66
2023/10/19 09:06:55;;;;;;;48.30;19.63;;;13.90;99.90;;;;;;6195769;23;20008;-66
2023/10/19 09:09:21;;;;;;;59.33;20.58;;;13.90;99.90;;;;;;6195744;23;20148;-66
2023/10/19 09:11:50;;;;;;;49.65;20.02;;;13.90;99.90;;;;;;6196159;23;20012;-67
2023/10/19 09:14:30;;;;;;;57.50;19.65;;;13.90;99.90;;;;;;6196199;23;20058;-66
2023/10/19 09:16:57;;;;;;;35.78;15.73;;;13.90;99.90;;;;;;6196174;23;20015;-66
2023/10/19 09:19:43;;;;;;;48.13;19.08;;;14.00;99.90;;;;;;6196221;23;20024;-66
2023/10/19 09:22:18;;;;;;;61.10;20.80;;;14.20;99.90;;;;;;6196710;23;20055;-66
2023/10/19 09:24:49;;;;;;;54.85;19.45;;;14.20;99.90;;;;;;6195978;23;20001;-66
2023/10/19 09:27:17;;;;;;;53.97;19.25;;;14.10;99.90;;;;;;6195936;23;20001;-66
2023/10/19 09:29:43;;;;;;;46.97;17.85;;;14.20;99.90;;;;;;6196536;23;20005;-66
2023/10/19 09:32:09;;;;;;;37.28;15.63;;;14.40;99.90;;;;;;6196183;23;20011;-66
2023/10/19 09:34:36;;;;;;;54.97;19.30;;;14.50;99.90;;;;;;6195866;23;20004;-66
2023/10/19 09:37:04;;;;;;;46.75;17.48;;;14.60;99.90;;;;;;6195888;23;20009;-66
2023/10/19 09:39:37;;;;;;;42.30;17.30;;;14.50;99.90;;;;;;6195612;23;20043;-66
2023/10/19 09:42:10;;;;;;;59.88;19.35;;;14.50;99.90;;;;;;6195965;23;20001;-66
2023/10/19 09:44:54;;;;;;;51.08;18.10;;;14.50;99.90;;;;;;6196629;23;20072;-67
2023/10/19 09:47:30;;;;;;;49.25;18.42;;;14.50;99.90;;;;;;6196027;23;20008;-67
2023/10/19 09:49:56;;;;;;;48.58;17.80;;;14.50;99.90;;;;;;6196266;23;20008;-67
2023/10/19 09:52:24;;;;;;;46.53;17.30;;;14.60;99.90;;;;;;6195843;23;20004;-68
2023/10/19 09:55:10;;;;;;;37.53;16.60;;;14.70;99.90;;;;;;6195696;23;20009;-67
2023/10/19 09:57:52;;;;;;;46.20;15.93;;;14.80;99.90;;;;;;6196067;23;20043;-67
2023/10/19 10:00:23;;;;;;;46.30;17.35;;;14.80;99.90;;;;;;6195852;23;20012;-67
2023/10/19 10:02:50;;;;;;;51.83;17.98;;;14.80;99.90;;;;;;6195375;23;20008;-67
2023/10/19 10:05:37;;;;;;;40.85;17.60;;;15.00;99.90;;;;;;6194525;23;20008;-67
2023/10/19 10:08:18;;;;;;;39.58;16.38;;;15.00;99.90;;;;;;6195547;23;20004;-67
2023/10/19 10:10:49;;;;;;;37.47;14.30;;;14.90;99.90;;;;;;6195583;23;20009;-67
2023/10/19 10:13:27;;;;;;;37.15;15.88;;;14.90;99.90;;;;;;6196288;23;20005;-66
2023/10/19 10:15:57;;;;;;;35.25;14.80;;;15.00;99.90;;;;;;6196214;23;20005;-66
2023/10/19 10:18:27;;;;;;;35.47;15.15;;;15.00;99.90;;;;;;6195649;23;20011;-66
2023/10/19 10:21:08;;;;;;;37.30;14.87;;;14.90;99.90;;;;;;6196256;23;20008;-66
2023/10/19 10:23:40;;;;;;;32.20;13.73;;;14.90;99.90;;;;;;6195302;23;20008;-66
2023/10/19 10:26:08;;;;;;;31.65;13.93;;;14.80;99.90;;;;;;6195354;23;20000;-66
2023/10/19 10:28:35;;;;;;;45.30;16.25;;;14.80;99.90;;;;;;6195527;23;19996;-66
2023/10/19 10:31:24;;;;;;;38.80;14.65;;;14.70;99.90;;;;;;6195267;23;20004;-66
2023/10/19 10:33:57;;;;;;;30.80;13.65;;;14.80;99.90;;;;;;6195087;23;19997;-67
2023/10/19 10:36:23;;;;;;;46.00;16.23;;;14.90;99.90;;;;;;6195029;23;20000;-66
2023/10/19 10:38:51;;;;;;;37.00;15.15;;;14.90;99.90;;;;;;6195307;23;20001;-66
2023/10/19 10:41:28;;;;;;;34.60;16.15;;;15.00;99.90;;;;;;6195934;23;20024;-66
2023/10/19 10:43:58;;;;;;;29.42;14.43;;;15.10;99.90;;;;;;6195943;23;20083;-67
2023/10/19 10:46:25;;;;;;;25.45;11.95;;;15.10;99.90;;;;;;6194850;23;20000;-67
2023/10/19 10:48:51;;;;;;;28.75;12.38;;;15.50;99.90;;;;;;6195295;23;20012;-67
2023/10/19 10:51:19;;;;;;;24.00;12.23;;;15.80;99.90;;;;;;6195251;23;20005;-67
2023/10/19 10:53:48;;;;;;;26.42;12.02;;;15.90;99.90;;;;;;6195099;23;20008;-67
2023/10/19 10:56:14;;;;;;;26.23;12.13;;;16.10;99.90;;;;;;6195238;23;20082;-67
2023/10/19 10:58:40;;;;;;;26.92;12.23;;;16.10;99.90;;;;;;6195147;23;20000;-68
2023/10/19 11:01:06;;;;;;;23.23;11.80;;;16.10;99.90;;;;;;6194764;23;20028;-68
2023/10/19 11:03:32;;;;;;;27.55;11.60;;;16.00;99.90;;;;;;6196114;23;20031;-68
2023/10/19 11:06:07;;;;;;;19.75;10.55;;;16.00;99.90;;;;;;6194492;23;20001;-67
2023/10/19 11:08:33;;;;;;;19.63;10.73;;;16.00;99.90;;;;;;6194982;23;20011;-67
2023/10/19 11:11:07;;;;;;;20.90;10.93;;;16.10;99.90;;;;;;6194808;23;20017;-67
2023/10/19 11:13:34;;;;;;;30.52;13.43;;;16.30;99.90;;;;;;6195667;23;20083;-67
2023/10/19 11:16:01;;;;;;;29.38;13.15;;;16.20;99.90;;;;;;6194371;23;20035;-65
2023/10/19 11:18:39;;;;;;;34.65;13.82;;;16.00;99.90;;;;;;6195564;23;20008;-65
2023/10/19 11:21:12;;;;;;;24.10;10.93;;;16.10;99.90;;;;;;6195842;23;20029;-65
2023/10/19 11:23:58;;;;;;;24.80;12.60;;;15.90;99.90;;;;;;6194705;23;20055;-65
2023/10/19 11:26:24;;;;;;;30.70;14.07;;;15.70;99.90;;;;;;6194529;23;20024;-64
2023/10/19 11:29:01;;;;;;;26.92;13.60;;;15.60;99.90;;;;;;6194770;23;19997;-67
2023/10/19 11:31:27;;;;;;;33.78;15.65;;;15.40;99.90;;;;;;6194909;23;20004;-67
2023/10/19 11:33:58;;;;;;;28.65;14.77;;;15.40;99.90;;;;;;6194640;23;20004;-67
2023/10/19 11:36:24;;;;;;;37.23;16.67;;;15.30;99.90;;;;;;6195353;23;20008;-67
2023/10/19 11:38:52;;;;;;;38.50;15.88;;;15.30;99.90;;;;;;6194243;23;20012;-67
2023/10/19 11:41:18;;;;;;;34.53;13.88;;;15.30;99.90;;;;;;6195167;23;20038;-67
2023/10/19 11:43:48;;;;;;;26.17;12.07;;;15.60;99.90;;;;;;6195517;23;20020;-67
2023/10/19 11:46:14;;;;;;;25.52;13.65;;;15.80;99.90;;;;;;6194575;23;20067;-67
2023/10/19 11:48:42;;;;;;;35.88;15.57;;;15.90;99.90;;;;;;6194603;23;20044;-67
2023/10/19 11:51:10;;;;;;;38.15;14.75;;;15.80;99.90;;;;;;6194638;23;20004;-67
2023/10/19 11:53:37;;;;;;;30.45;14.02;;;15.70;99.90;;;;;;6194315;23;20001;-67
2023/10/19 11:56:05;;;;;;;35.45;15.43;;;15.70;99.90;;;;;;6194596;23;20007;-67
2023/10/19 11:58:34;;;;;;;41.40;15.95;;;15.50;99.90;;;;;;6194429;23;20007;-67
2023/10/19 12:01:01;;;;;;;29.85;14.25;;;15.50;99.90;;;;;;6195191;23;20013;-67
2023/10/19 12:03:28;;;;;;;36.85;16.52;;;15.50;99.90;;;;;;6194416;23;20004;-67
2023/10/19 12:05:54;;;;;;;42.45;17.58;;;15.50;99.90;;;;;;6195098;23;20001;-67
2023/10/19 12:08:19;;;;;;;40.03;16.90;;;15.50;99.90;;;;;;6195170;23;20063;-67
2023/10/19 12:10:45;;;;;;;39.10;16.27;;;15.50;99.90;;;;;;6194432;23;20001;-67
2023/10/19 12:13:10;;;;;;;40.70;16.08;;;15.60;99.90;;;;;;6194794;23;20005;-67
2023/10/19 12:15:36;;;;;;;47.78;17.52;;;15.60;99.90;;;;;;6194961;23;20055;-67
2023/10/19 12:18:02;;;;;;;38.20;16.33;;;15.60;99.90;;;;;;6194434;23;20004;-67
2023/10/19 12:20:30;;;;;;;40.65;15.20;;;15.60;99.90;;;;;;6194429;23;20031;-67
2023/10/19 12:22:56;;;;;;;39.78;15.15;;;15.70;99.90;;;;;;6194435;23;20051;-67
2023/10/19 12:25:29;;;;;;;44.58;16.98;;;15.70;99.90;;;;;;6194506;23;20005;-67
2023/10/19 12:27:59;;;;;;;39.90;15.50;;;15.70;99.90;;;;;;6194011;23;20008;-67
2023/10/19 12:30:32;;;;;;;37.42;15.48;;;15.80;99.90;;;;;;6194384;23;20028;-67
2023/10/19 12:33:00;;;;;;;34.00;15.27;;;15.80;99.90;;;;;;6195043;23;20040;-67
2023/10/19 12:35:42;;;;;;;45.90;16.13;;;15.80;99.90;;;;;;6194292;23;20067;-67
2023/10/19 12:38:15;;;;;;;33.67;13.90;;;15.80;99.90;;;;;;6195094;23;20005;-67
2023/10/19 12:40:42;;;;;;;32.75;13.02;;;15.80;99.90;;;;;;6194735;23;20099;-67
2023/10/19 12:43:10;;;;;;;42.78;16.23;;;15.90;99.90;;;;;;6194891;23;20000;-67
2023/10/19 12:45:36;;;;;;;34.65;14.70;;;15.80;99.90;;;;;;6194316;23;20004;-67
2023/10/19 12:48:04;;;;;;;29.75;14.00;;;15.90;99.90;;;;;;6195006;23;20001;-67
2023/10/19 12:50:30;;;;;;;27.48;12.60;;;15.90;99.90;;;;;;6194219;23;20001;-67
2023/10/19 12:52:57;;;;;;;34.03;14.48;;;16.00;99.90;;;;;;6194848;23;20008;-67